Time;durP1;ratioP1;P1;durP2;ratioP2;P2;SDS_P1;SDS_P2;PMS_P1;PMS_P2;Temp;Humidity;BMP_temperature;BMP_pressure;BME280_temperature;BME280_humidity;BME280_pressure;Samples;Min_cycle;Max_cycle;Signal;HPM_P1;HPM_P2
2021/12/05 00:21:44;;;;;;;26.57;15.60;;;;;;;0.58;nan;97293.53;5090520;28;20402;-54
2021/12/05 00:24:15;;;;;;;25.43;15.80;;;;;;;0.62;nan;97297.72;5089139;28;20036;-56
2021/12/05 00:26:51;;;;;;;24.97;15.70;;;;;;;0.66;nan;97291.84;5087999;28;20040;-53
2021/12/05 00:34:34;;;;;;;20.10;14.03;;;;;;;0.68;nan;97289.31;5086781;28;20389;-55
2021/12/05 00:43:10;;;;;;;24.80;15.93;;;;;;;0.65;nan;97286.78;5084829;28;20063;-52
2021/12/05 00:45:38;;;;;;;25.97;15.80;;;;;;;0.66;nan;97284.28;5083078;28;20135;-52
2021/12/05 00:48:16;;;;;;;23.60;15.07;;;;;;;0.68;nan;97295.19;5088490;28;20063;-55
2021/12/05 01:16:37;;;;;;;26.43;15.77;;;;;;;0.45;nan;97285.16;5090162;28;20035;-52
2021/12/05 01:19:05;;;;;;;24.00;15.80;;;;;;;0.41;nan;97278.44;5088406;28;20318;-54
2021/12/05 01:21:31;;;;;;;23.90;15.57;;;;;;;0.29;nan;97280.13;5086224;28;20036;-52
2021/12/05 01:32:24;;;;;;;23.43;15.50;;;;;;;0.36;nan;97277.59;5085309;28;20496;-53
2021/12/05 02:01:44;;;;;;;32.67;17.43;;;;;;;0.30;nan;97281.78;5091860;28;20040;-53
2021/12/05 02:09:54;;;;;;;23.00;15.50;;;;;;;0.34;nan;97283.50;5088935;28;20101;-51
2021/12/05 02:32:14;;;;;;;26.93;16.23;;;;;;;0.53;nan;97277.56;5092506;28;20058;-54
2021/12/05 02:42:37;;;;;;;24.47;15.10;;;;;;;0.43;nan;97263.28;5088140;28;20371;-52
2021/12/05 02:45:06;;;;;;;26.77;16.70;;;;;;;0.48;nan;97274.22;5084340;28;20036;-55
2021/12/05 02:47:33;;;;;;;26.97;17.53;;;;;;;0.44;nan;97253.22;5082089;28;20056;-54
2021/12/05 02:50:04;;;;;;;24.50;15.60;;;;;;;0.51;nan;97264.13;5084245;28;20474;-53
2021/12/05 02:52:39;;;;;;;23.60;15.03;;;;;;;0.48;nan;97269.16;5084809;28;20048;-52
2021/12/05 02:55:10;;;;;;;26.25;15.68;;;;;;;0.49;nan;97272.53;5090729;28;20047;-52
2021/12/05 03:00:08;;;;;;;24.60;14.90;;;;;;;0.54;nan;97279.25;5088403;28;20048;-54
2021/12/05 03:02:39;;;;;;;24.97;14.97;;;;;;;0.60;nan;97281.75;5087908;28;20040;-54
2021/12/05 03:05:09;;;;;;;24.90;14.37;;;;;;;0.61;nan;97287.63;5090195;28;20048;-52
2021/12/05 03:07:39;;;;;;;23.27;14.50;;;;;;;0.56;nan;97280.06;5090271;28;20145;-53
2021/12/05 03:10:05;;;;;;;24.63;15.10;;;;;;;0.62;nan;97285.13;5088826;28;20040;-56
2021/12/05 03:12:34;;;;;;;26.33;15.93;;;;;;;0.59;nan;97285.13;5088993;28;20039;-52
2021/12/05 03:15:05;;;;;;;27.37;15.47;;;;;;;0.60;nan;97296.88;5092378;28;20044;-52
2021/12/05 03:17:31;;;;;;;27.13;16.10;;;;;;;0.56;nan;97287.63;5092600;28;20036;-53
2021/12/05 03:19:56;;;;;;;25.97;15.47;;;;;;;0.64;nan;97291.00;5086527;28;20036;-54
2021/12/05 03:22:22;;;;;;;29.10;16.57;;;;;;;0.65;nan;97289.31;5087532;28;20093;-56
2021/12/05 03:24:48;;;;;;;26.90;16.43;;;;;;;0.62;nan;97282.59;5091080;28;20192;-53
2021/12/05 03:27:14;;;;;;;26.37;15.57;;;;;;;0.62;nan;97292.69;5089454;28;20105;-53
2021/12/05 03:29:40;;;;;;;28.80;16.30;;;;;;;0.54;nan;97301.09;5086718;28;20036;-52
2021/12/05 03:32:06;;;;;;;28.43;16.00;;;;;;;0.59;nan;97301.94;5088788;28;20430;-53
2021/12/05 03:34:32;;;;;;;29.73;17.47;;;;;;;0.59;nan;97305.31;5090184;28;20050;-52
2021/12/05 03:37:00;;;;;;;31.47;16.20;;;;;;;0.61;nan;97305.28;5088930;28;20038;-51
2021/12/05 03:39:27;;;;;;;31.80;16.03;;;;;;;0.62;nan;97300.25;5086118;28;20043;-51
2021/12/05 03:41:53;;;;;;;29.87;16.70;;;;;;;0.66;nan;97293.50;5088726;28;20036;-52
2021/12/05 03:44:21;;;;;;;29.60;17.03;;;;;;;0.68;nan;97300.22;5089291;28;20393;-53
2021/12/05 03:46:50;;;;;;;26.07;17.10;;;;;;;0.66;nan;97299.41;5088090;28;20126;-52
2021/12/05 03:49:16;;;;;;;27.13;17.37;;;;;;;0.65;nan;97291.84;5085992;28;20042;-50
2021/12/05 03:51:51;;;;;;;32.80;17.67;;;;;;;0.69;nan;97303.59;5088924;28;20039;-51
2021/12/05 03:54:17;;;;;;;25.88;15.38;;;;;;;0.56;nan;97290.16;5089800;28;20060;-51
2021/12/05 03:56:43;;;;;;;31.57;17.50;;;;;;;0.52;nan;97307.81;5086197;28;20607;-50
2021/12/05 03:59:10;;;;;;;27.20;15.90;;;;;;;0.56;nan;97301.94;5084546;28;20193;-52
2021/12/05 04:01:36;;;;;;;31.60;18.07;;;;;;;0.47;nan;97298.56;5088607;28;20212;-56
2021/12/05 04:04:03;;;;;;;31.60;17.50;;;;;;;0.53;nan;97304.47;5087977;28;20082;-52
2021/12/05 04:06:29;;;;;;;31.47;18.77;;;;;;;0.52;nan;97303.63;5086042;28;20469;-52
2021/12/05 04:08:57;;;;;;;31.57;16.00;;;;;;;0.58;nan;97310.34;5086040;28;20397;-53
2021/12/05 04:11:30;;;;;;;30.60;17.77;;;;;;;0.60;nan;97312.00;5089205;28;20043;-53
2021/12/05 04:13:56;;;;;;;28.00;17.00;;;;;;;0.58;nan;97306.16;5088111;28;20562;-55
2021/12/05 04:16:22;;;;;;;29.47;17.63;;;;;;;0.62;nan;97314.53;5085694;28;20036;-59
2021/12/05 04:18:48;;;;;;;30.57;17.70;;;;;;;0.57;nan;97318.75;5063527;28;20464;-54
2021/12/05 04:21:16;;;;;;;34.47;20.40;;;;;;;0.61;nan;97323.78;5086581;28;20050;-59
2021/12/05 04:23:43;;;;;;;30.33;18.03;;;;;;;0.58;nan;97318.75;5089229;28;20040;-55
2021/12/05 04:26:09;;;;;;;31.87;15.57;;;;;;;0.58;nan;97318.75;5088216;28;20489;-53
2021/12/05 04:28:35;;;;;;;30.13;17.50;;;;;;;0.62;nan;97319.59;5088669;28;20039;-53
2021/12/05 04:31:01;;;;;;;33.50;17.67;;;;;;;0.64;nan;97321.25;5089980;28;20032;-53
2021/12/05 04:33:27;;;;;;;33.43;18.97;;;;;;;0.64;nan;97312.84;5090009;28;20039;-54
2021/12/05 04:35:52;;;;;;;31.13;18.50;;;;;;;0.58;nan;97307.81;5086585;28;20039;-55
2021/12/05 04:38:19;;;;;;;33.13;18.23;;;;;;;0.58;nan;97312.88;5089984;28;20409;-54
2021/12/05 04:40:49;;;;;;;32.93;18.07;;;;;;;0.61;nan;97328.81;5089996;28;20050;-51
2021/12/05 04:43:15;;;;;;;32.90;17.83;;;;;;;0.57;nan;97331.34;5088298;28;20044;-54
2021/12/05 04:45:40;;;;;;;33.70;18.67;;;;;;;0.58;nan;97330.50;5084908;28;20090;-52
2021/12/05 04:48:07;;;;;;;31.50;19.13;;;;;;;0.56;nan;97324.63;5089652;28;20063;-52
2021/12/05 04:50:33;;;;;;;33.80;18.87;;;;;;;0.53;nan;97335.56;5090404;28;20043;-51
2021/12/05 04:52:59;;;;;;;34.00;19.43;;;;;;;0.51;nan;97331.38;5087866;28;20044;-53
2021/12/05 04:55:25;;;;;;;35.03;19.97;;;;;;;0.43;nan;97326.31;5084047;28;20043;-51
2021/12/05 04:57:52;;;;;;;34.43;20.67;;;;;;;0.43;nan;97339.75;5090928;28;20566;-51
2021/12/05 05:00:39;;;;;;;36.20;20.43;;;;;;;0.46;nan;97333.88;5090012;28;20043;-53
2021/12/05 05:03:05;;;;;;;32.70;19.33;;;;;;;0.43;nan;97333.88;5087759;28;20354;-52
2021/12/05 05:05:32;;;;;;;35.23;19.70;;;;;;;0.41;nan;97321.28;5085100;28;20039;-54
2021/12/05 05:07:59;;;;;;;36.83;20.37;;;;;;;0.46;nan;97343.97;5091642;28;20063;-53
2021/12/05 05:10:28;;;;;;;36.87;20.37;;;;;;;0.56;nan;97332.19;5070829;28;20377;-51
2021/12/05 05:12:54;;;;;;;36.73;19.67;;;;;;;0.51;nan;97336.41;5087192;28;20580;-52
2021/12/05 05:15:23;;;;;;;38.30;20.03;;;;;;;0.49;nan;97355.72;5085998;28;20051;-52
2021/12/05 05:17:51;;;;;;;33.77;19.47;;;;;;;0.57;nan;97372.53;5090213;28;20028;-52
2021/12/05 05:20:25;;;;;;;40.77;21.37;;;;;;;0.62;nan;97375.91;5063569;28;20024;-56
2021/12/05 05:49:21;;;;;;;43.20;21.63;;;;;;;0.87;nan;97396.91;4938455;29;20094;-55
2021/12/05 05:51:47;;;;;;;37.00;20.77;;;;;;;0.83;nan;97396.06;4936275;29;20130;-55
2021/12/05 05:54:12;;;;;;;39.47;20.73;;;;;;;0.85;nan;97396.88;4941720;29;20134;-55
2021/12/05 05:56:41;;;;;;;33.93;18.97;;;;;;;0.85;nan;97409.50;4942287;29;20482;-56
2021/12/05 05:59:24;;;;;;;38.80;19.27;;;;;;;0.86;nan;97400.25;4941503;29;20131;-53
2021/12/05 06:04:15;;;;;;;35.13;19.80;;;;;;;0.91;nan;97389.31;4937344;28;20051;-53
2021/12/05 06:06:41;;;;;;;34.17;19.83;;;;;;;0.93;nan;97398.59;4987334;28;20109;-53
2021/12/05 06:09:08;;;;;;;40.73;22.37;;;;;;;0.90;nan;97395.22;4986600;28;20718;-52
2021/12/05 06:11:34;;;;;;;35.63;22.03;;;;;;;0.91;nan;97391.84;5084211;28;20169;-52
2021/12/05 06:13:59;;;;;;;29.43;18.17;;;;;;;0.88;nan;97404.47;5088539;28;20028;-54
2021/12/05 06:16:25;;;;;;;36.40;19.53;;;;;;;0.88;nan;97419.59;5089124;28;20214;-56
2021/12/05 06:18:50;;;;;;;29.07;19.73;;;;;;;0.81;nan;97428.00;5086414;28;20047;-54
2021/12/05 06:21:16;;;;;;;38.00;22.97;;;;;;;0.80;nan;97431.38;5084689;28;20306;-53
2021/12/05 06:23:43;;;;;;;36.07;22.43;;;;;;;0.81;nan;97433.03;5090238;28;20086;-53
2021/12/05 06:26:12;;;;;;;32.57;20.13;;;;;;;0.74;nan;97443.97;5088812;28;20040;-53
2021/12/05 06:28:45;;;;;;;37.03;20.30;;;;;;;0.74;nan;97445.66;5059388;28;20397;-56
2021/12/05 06:39:23;;;;;;;31.83;17.13;;;;;;;0.77;nan;97421.28;5088988;28;20043;-56
2021/12/05 06:42:01;;;;;;;31.53;17.93;;;;;;;0.78;nan;97422.13;5091805;28;20605;-54
2021/12/05 06:47:27;;;;;;;30.57;17.23;;;;;;;0.83;nan;97420.44;5058678;28;20035;-53
2021/12/05 06:49:54;;;;;;;31.13;16.77;;;;;;;0.85;nan;97437.25;5090241;28;20124;-56
2021/12/05 06:52:21;;;;;;;28.33;16.70;;;;;;;0.80;nan;97451.56;5093066;28;20036;-54
2021/12/05 06:54:47;;;;;;;28.90;16.50;;;;;;;0.80;nan;97474.28;5093155;28;20047;-55
2021/12/05 06:57:12;;;;;;;41.27;22.13;;;;;;;0.93;nan;97491.94;5088809;28;20308;-54
2021/12/05 06:59:40;;;;;;;42.63;22.63;;;;;;;0.98;nan;97491.06;5089704;28;20070;-52
2021/12/05 07:02:09;;;;;;;39.57;21.13;;;;;;;1.04;nan;97501.19;5093151;28;20383;-54
2021/12/05 07:07:06;;;;;;;37.27;19.47;;;;;;;1.03;nan;97474.25;5089308;28;20048;-54
2021/12/05 07:09:32;;;;;;;37.50;20.30;;;;;;;1.08;nan;97470.06;5092834;28;20097;-52
2021/12/05 07:25:24;;;;;;;45.57;21.87;;;;;;;1.26;nan;97512.97;5086705;28;20039;-53
2021/12/05 07:41:48;;;;;;;35.07;17.60;;;;;;;1.53;nan;97507.00;5093081;28;20042;-54
2021/12/05 07:44:14;;;;;;;34.10;20.13;;;;;;;1.67;nan;97497.72;5085951;28;20036;-53
2021/12/05 07:46:39;;;;;;;37.23;21.80;;;;;;;1.67;nan;97495.22;5088796;28;20039;-54
2021/12/05 07:49:08;;;;;;;37.73;22.77;;;;;;;1.69;nan;97493.53;5091177;28;20043;-52
2021/12/05 07:51:38;;;;;;;20.77;10.73;;;;;;;1.80;nan;97491.81;5091259;28;20048;-52
2021/12/05 07:54:10;;;;;;;10.80;5.63;;;;;;;2.44;nan;97476.38;5069152;28;20039;-54
2021/12/05 08:15:58;;;;;;;4.57;2.00;;;;;;;3.57;nan;97489.81;5090994;28;20108;-56
2021/12/05 08:18:23;;;;;;;2.60;1.93;;;;;;;3.57;nan;97489.81;5095244;28;20047;-56
2021/12/05 08:20:49;;;;;;;4.80;1.90;;;;;;;3.59;nan;97489.81;5090049;28;20040;-58
2021/12/05 08:23:16;;;;;;;2.37;1.90;;;;;;;3.56;nan;97479.72;5087099;28;20035;-57
2021/12/05 08:25:47;;;;;;;3.53;2.00;;;;;;;3.58;nan;97485.59;5089033;28;20055;-56
2021/12/05 08:39:15;;;;;;;2.90;2.10;;;;;;;3.68;nan;97475.38;5089623;28;20064;-57
2021/12/05 08:41:46;;;;;;;3.13;1.53;;;;;;;3.76;nan;97472.75;5086230;28;20044;-57
2021/12/05 10:03:34;;;;;;;2.40;1.27;;;;;;;3.48;nan;97527.09;5087576;28;20055;-57
2021/12/05 10:09:17;;;;;;;2.00;1.60;;;;;;;3.34;nan;97541.56;5086121;28;20435;-57
2021/12/05 10:11:38;;;;;;;2.73;1.80;;;;;;;3.25;nan;97532.34;5088729;28;20130;-56
2021/12/05 10:37:22;;;;;;;3.80;1.70;;;;;;;3.16;nan;97520.59;4988396;28;20512;-58
2021/12/05 10:40:00;;;;;;;3.10;1.77;;;;;;;3.22;nan;97522.25;4993019;28;20046;-57
2021/12/05 10:42:39;;;;;;;8.07;3.40;;;;;;;3.31;nan;97521.31;4993422;28;20118;-58
2021/12/05 10:45:11;;;;;;;3.03;1.77;;;;;;;3.37;nan;97524.63;4992194;28;20042;-56
2021/12/05 10:47:40;;;;;;;4.33;2.77;;;;;;;3.51;nan;97515.22;4992432;28;20038;-59
2021/12/05 10:50:43;;;;;;;3.77;2.13;;;;;;;3.59;nan;97518.53;4994078;28;20038;-57
2021/12/05 10:53:29;;;;;;;5.37;2.57;;;;;;;3.73;nan;97520.94;4990024;28;20400;-58
2021/12/05 10:56:18;;;;;;;4.70;2.38;;;;;;;3.88;nan;97520.78;4991640;28;20060;-59
2021/12/05 10:58:55;;;;;;;3.53;2.53;;;;;;;3.87;nan;97516.53;4995494;28;20152;-58
2021/12/05 11:01:27;;;;;;;5.17;3.33;;;;;;;3.91;nan;97523.25;4997966;28;20042;-58
2021/12/05 11:04:00;;;;;;;4.03;2.70;;;;;;;4.02;nan;97515.56;4988624;28;20063;-58
2021/12/05 11:06:32;;;;;;;6.63;3.17;;;;;;;4.01;nan;97517.25;4993879;28;20069;-56
2021/12/05 11:09:00;;;;;;;3.17;2.40;;;;;;;3.90;nan;97515.69;4991655;28;20414;-56
2021/12/05 11:11:26;;;;;;;4.27;3.10;;;;;;;4.02;nan;97516.41;4992669;28;20448;-55
2021/12/05 11:13:52;;;;;;;7.83;4.57;;;;;;;4.01;nan;97517.25;5023948;28;20045;-55
2021/12/05 11:16:36;;;;;;;5.97;4.17;;;;;;;4.13;nan;97521.34;5044262;28;20092;-57
2021/12/05 11:19:10;;;;;;;13.80;8.07;;;;;;;4.20;nan;97519.59;5063866;28;20094;-58
2021/12/05 11:21:38;;;;;;;13.20;8.03;;;;;;;4.22;nan;97521.22;5070172;28;20047;-57
2021/12/05 11:24:11;;;;;;;13.17;8.53;;;;;;;4.30;nan;97523.66;5067768;28;20446;-56
2021/12/05 11:26:41;;;;;;;9.63;7.10;;;;;;;4.28;nan;97522.88;5055805;28;20036;-59
2021/12/05 11:29:08;;;;;;;9.17;6.97;;;;;;;4.31;nan;97527.88;5067706;28;20041;-56
2021/12/05 11:31:36;;;;;;;8.47;4.97;;;;;;;4.25;nan;97533.88;5066366;28;20095;-57
2021/12/05 11:34:03;;;;;;;8.73;4.63;;;;;;;4.05;nan;97533.25;5069999;28;20040;-55
2021/12/05 11:36:32;;;;;;;4.00;3.63;;;;;;;3.91;nan;97528.34;5072404;28;20029;-58
2021/12/05 11:38:58;;;;;;;3.37;2.27;;;;;;;3.85;nan;97518.28;5063831;28;20040;-57
2021/12/05 11:41:25;;;;;;;6.00;3.10;;;;;;;3.94;nan;97507.19;5068650;28;20098;-56
2021/12/05 11:43:56;;;;;;;5.50;2.50;;;;;;;3.90;nan;97505.56;5071246;28;20041;-58
2021/12/05 11:46:27;;;;;;;4.40;2.80;;;;;;;3.89;nan;97512.31;5071370;28;20036;-57
2021/12/05 11:48:53;;;;;;;4.97;2.77;;;;;;;3.78;nan;97524.25;5069457;28;20051;-57
2021/12/05 11:51:21;;;;;;;7.53;3.83;;;;;;;3.86;nan;97521.66;5058745;28;20145;-58
2021/12/05 11:53:49;;;;;;;12.23;5.60;;;;;;;3.86;nan;97519.94;5077467;28;20037;-57
2021/12/05 11:56:37;;;;;;;5.63;3.77;;;;;;;3.93;nan;97531.72;5069611;28;20028;-59
2021/12/05 11:59:21;;;;;;;2.53;2.33;;;;;;;3.89;nan;97529.22;5069925;28;20050;-58
2021/12/05 12:01:52;;;;;;;3.93;2.50;;;;;;;3.80;nan;97536.91;5067777;28;20045;-60
2021/12/05 12:04:21;;;;;;;5.43;3.60;;;;;;;3.87;nan;97536.81;5069257;28;20414;-57
2021/12/05 12:07:04;;;;;;;8.70;4.60;;;;;;;3.78;nan;97541.97;5070612;28;20036;-56
2021/12/05 12:09:31;;;;;;;11.67;7.80;;;;;;;3.78;nan;97538.63;5069203;28;20088;-58
2021/12/05 12:11:58;;;;;;;24.80;10.40;;;;;;;3.80;nan;97527.63;5065693;28;20404;-58
2021/12/05 12:14:23;;;;;;;7.80;5.10;;;;;;;3.87;nan;97535.97;5062996;28;20050;-58
2021/12/05 12:16:50;;;;;;;4.70;2.80;;;;;;;3.78;nan;97531.03;5070154;28;20028;-59
2021/12/05 12:19:21;;;;;;;3.40;2.00;;;;;;;3.72;nan;97526.00;5069348;28;20087;-58
2021/12/05 12:21:48;;;;;;;0.90;0.90;;;;;;;3.69;nan;97522.63;5065952;28;20041;-58
2021/12/05 12:24:15;;;;;;;1.43;0.70;;;;;;;3.66;nan;97522.69;5067289;28;20044;-57
2021/12/05 12:26:41;;;;;;;5.60;1.67;;;;;;;3.74;nan;97521.75;5068883;28;20028;-58
2021/12/05 12:29:09;;;;;;;1.23;0.93;;;;;;;3.60;nan;97519.38;5065700;28;20496;-58
2021/12/05 12:31:36;;;;;;;0.83;0.73;;;;;;;3.67;nan;97506.63;5066513;28;20618;-58
2021/12/05 12:34:08;;;;;;;0.83;0.70;;;;;;;3.62;nan;97512.56;5067349;28;20060;-59
2021/12/05 12:36:34;;;;;;;0.73;0.73;;;;;;;3.57;nan;97510.09;5065674;28;20490;-57
2021/12/05 12:39:04;;;;;;;1.17;1.00;;;;;;;3.60;nan;97511.78;5064680;28;20059;-58
2021/12/05 12:41:30;;;;;;;1.97;0.57;;;;;;;3.62;nan;97508.34;5067686;28;20040;-59
2021/12/05 12:43:58;;;;;;;1.40;0.77;;;;;;;3.56;nan;97505.91;5070523;28;20036;-59
2021/12/05 12:46:40;;;;;;;0.93;0.93;;;;;;;3.49;nan;97506.78;5058283;28;20861;-56
2021/12/05 12:49:14;;;;;;;0.90;0.73;;;;;;;3.43;nan;97501.78;5064848;28;20055;-57
2021/12/05 12:52:07;;;;;;;1.70;0.80;;;;;;;3.44;nan;97508.53;5067029;28;20405;-57
2021/12/05 12:54:35;;;;;;;2.40;1.13;;;;;;;3.45;nan;97511.91;5058821;28;20043;-58
2021/12/05 12:57:07;;;;;;;3.67;0.80;;;;;;;3.46;nan;97508.50;5065089;28;20363;-56
2021/12/05 12:59:36;;;;;;;0.90;0.90;;;;;;;3.39;nan;97506.91;5067337;28;20500;-58
2021/12/05 13:10:36;;;;;;;1.40;1.00;;;;;;;3.22;nan;97497.72;5064548;28;20512;-55
2021/12/05 13:13:13;;;;;;;4.57;2.07;;;;;;;3.09;nan;97487.75;5067947;28;20062;-57
2021/12/05 13:15:40;;;;;;;1.03;0.80;;;;;;;3.08;nan;97475.91;5066612;28;20048;-58
2021/12/05 13:18:13;;;;;;;1.93;1.13;;;;;;;3.14;nan;97475.88;5045120;28;20120;-57
2021/12/05 13:20:41;;;;;;;1.00;0.90;;;;;;;3.06;nan;97480.16;5059974;28;20175;-56
2021/12/05 13:23:19;;;;;;;1.47;1.37;;;;;;;3.11;nan;97480.94;5067839;28;20037;-57
2021/12/05 13:26:18;;;;;;;1.70;1.17;;;;;;;3.16;nan;97469.09;5065379;28;20044;-59
2021/12/05 13:29:15;;;;;;;1.33;1.20;;;;;;;3.16;nan;97469.94;5067609;28;20067;-57
2021/12/05 13:31:40;;;;;;;2.20;1.17;;;;;;;3.04;nan;97474.28;5062626;28;20056;-57
2021/12/05 13:34:36;;;;;;;3.37;1.87;;;;;;;3.13;nan;97477.56;5059016;28;20044;-56
2021/12/05 13:37:13;;;;;;;;;;;;;;;3.13;nan;97481.78;5065489;28;20044;-58
2021/12/05 13:39:41;;;;;;;1.20;1.10;;;;;;;2.98;nan;97481.91;5043834;28;19943;-56
2021/12/05 13:42:14;;;;;;;2.87;1.50;;;;;;;3.07;nan;97487.75;5068829;28;20033;-57
2021/12/05 13:44:58;;;;;;;2.67;1.40;;;;;;;3.07;nan;97490.28;5065755;28;20562;-59
2021/12/05 13:47:29;;;;;;;2.83;1.20;;;;;;;3.03;nan;97480.19;5067309;28;20047;-58
2021/12/05 13:49:56;;;;;;;2.80;1.43;;;;;;;3.07;nan;97491.97;5068840;28;20519;-56
2021/12/05 13:52:36;;;;;;;1.67;1.30;;;;;;;3.08;nan;97506.31;5063720;28;20048;-58
2021/12/05 13:55:35;;;;;;;1.83;1.40;;;;;;;3.05;nan;97519.00;5057924;28;20032;-56
2021/12/05 13:58:25;;;;;;;1.20;1.10;;;;;;;3.09;nan;97513.06;5068537;28;20028;-59
2021/12/05 14:00:55;;;;;;;1.93;1.80;;;;;;;3.13;nan;97510.50;5065217;28;20367;-56
2021/12/05 14:03:45;;;;;;;1.10;1.10;;;;;;;3.06;nan;97518.97;5063018;28;20064;-55
2021/12/05 14:06:24;;;;;;;1.20;1.13;;;;;;;3.17;nan;97511.31;5055310;28;20079;-54
2021/12/05 14:08:51;;;;;;;4.00;1.10;;;;;;;3.07;nan;97515.59;5065089;28;20041;-56
2021/12/05 14:11:16;;;;;;;2.40;1.33;;;;;;;3.00;nan;97511.44;5065443;28;20244;-56
2021/12/05 14:13:42;;;;;;;1.90;1.40;;;;;;;3.06;nan;97508.84;5063738;28;20445;-59
2021/12/05 14:16:07;;;;;;;1.60;1.50;;;;;;;3.02;nan;97507.19;5068604;28;20037;-57
2021/12/05 14:18:33;;;;;;;1.87;1.27;;;;;;;2.99;nan;97503.84;5059565;28;20048;-54
2021/12/05 14:21:17;;;;;;;1.50;1.40;;;;;;;3.03;nan;97508.88;5061777;28;20029;-57
2021/12/05 14:24:10;;;;;;;2.07;1.17;;;;;;;3.04;nan;97517.31;5062831;28;20052;-56
2021/12/05 14:26:39;;;;;;;1.50;1.37;;;;;;;2.92;nan;97505.59;5039866;28;20063;-57
2021/12/05 14:29:12;;;;;;;2.43;1.37;;;;;;;2.95;nan;97513.16;5071288;28;20044;-56
2021/12/05 14:31:45;;;;;;;1.80;1.70;;;;;;;2.98;nan;97504.69;5068833;28;20036;-53
2021/12/05 14:34:11;;;;;;;1.47;1.37;;;;;;;2.93;nan;97509.78;5066080;28;20041;-56
2021/12/05 14:36:50;;;;;;;1.30;1.20;;;;;;;2.95;nan;97504.72;5070514;28;20634;-59
2021/12/05 14:39:27;;;;;;;2.67;1.60;;;;;;;2.88;nan;97523.34;5064123;28;20134;-58
2021/12/05 14:41:58;;;;;;;2.40;1.87;;;;;;;2.93;nan;97509.78;5056603;28;20036;-57
2021/12/05 14:44:24;;;;;;;1.20;1.10;;;;;;;2.86;nan;97517.44;5066328;28;20041;-56
2021/12/05 14:46:57;;;;;;;3.33;2.07;;;;;;;2.97;nan;97520.75;5067441;28;20044;-56
2021/12/05 14:49:26;;;;;;;2.47;2.27;;;;;;;2.93;nan;97522.44;5064579;28;20047;-59
2021/12/05 14:51:53;;;;;;;2.90;1.80;;;;;;;2.84;nan;97522.50;5066325;28;20044;-55
2021/12/05 14:54:22;;;;;;;2.27;2.00;;;;;;;2.89;nan;97523.31;5070106;28;20040;-57
2021/12/05 14:56:49;;;;;;;2.40;2.20;;;;;;;2.92;nan;97530.06;5073559;28;20067;-57
2021/12/05 14:59:15;;;;;;;2.70;2.43;;;;;;;2.95;nan;97530.88;5069625;28;20116;-59
2021/12/05 15:01:43;;;;;;;3.40;2.63;;;;;;;2.94;nan;97520.75;5067418;28;20444;-57
2021/12/05 15:04:10;;;;;;;2.60;2.20;;;;;;;2.89;nan;97527.53;5072098;28;20049;-54
2021/12/05 15:06:44;;;;;;;3.93;2.27;;;;;;;2.97;nan;97529.16;5072860;28;20573;-57
2021/12/05 15:09:27;;;;;;;5.60;3.50;;;;;;;2.99;nan;97519.88;5068262;28;20064;-59
2021/12/05 15:12:00;;;;;;;7.63;3.80;;;;;;;2.94;nan;97526.66;5068304;28;21198;-57
2021/12/05 15:14:28;;;;;;;6.47;4.17;;;;;;;2.86;nan;97525.00;5071945;28;20043;-58
2021/12/05 15:17:06;;;;;;;6.70;3.97;;;;;;;2.94;nan;97533.41;5070467;28;20056;-57
2021/12/05 15:19:33;;;;;;;6.77;3.60;;;;;;;2.94;nan;97531.72;5069332;28;20051;-58
2021/12/05 15:22:01;;;;;;;3.90;2.87;;;;;;;2.95;nan;97540.16;5070021;28;20048;-54
2021/12/05 15:24:28;;;;;;;3.47;3.00;;;;;;;2.94;nan;97536.78;5072425;28;20170;-56
2021/12/05 15:26:56;;;;;;;3.93;3.53;;;;;;;2.91;nan;97544.41;5063101;28;20614;-57
2021/12/05 15:29:22;;;;;;;3.07;2.57;;;;;;;2.91;nan;97539.34;5066945;28;20048;-56
2021/12/05 15:31:48;;;;;;;3.00;2.70;;;;;;;2.90;nan;97546.94;5070014;28;20143;-57
2021/12/05 15:34:18;;;;;;;3.77;3.07;;;;;;;2.94;nan;97548.59;5072324;28;20383;-58
2021/12/05 15:36:44;;;;;;;3.00;2.70;;;;;;;2.87;nan;97547.81;5068515;28;20044;-56
2021/12/05 15:39:19;;;;;;;4.37;3.50;;;;;;;2.87;nan;97537.69;5067827;28;20090;-57
2021/12/05 15:41:48;;;;;;;;;;;;;;;2.91;nan;97554.53;5072682;28;20029;-56
2021/12/05 15:44:33;;;;;;;5.53;4.20;;;;;;;2.86;nan;97547.78;5074906;28;20007;-54
2021/12/05 15:47:08;;;;;;;6.25;3.35;;;;;;;2.87;nan;97541.91;5067428;28;20448;-56
2021/12/05 15:49:47;;;;;;;5.23;3.90;;;;;;;2.89;nan;97551.16;5071645;28;20494;-54
2021/12/05 15:52:13;;;;;;;4.57;3.23;;;;;;;2.88;nan;97554.53;5065187;28;20033;-55
2021/12/05 15:54:41;;;;;;;5.33;3.30;;;;;;;2.86;nan;97545.25;5073657;28;20170;-56
2021/12/05 15:57:13;;;;;;;6.00;4.60;;;;;;;2.87;nan;97557.91;5068305;28;20037;-57
2021/12/05 15:59:42;;;;;;;5.17;3.87;;;;;;;2.90;nan;97557.06;5061355;28;20059;-56
2021/12/05 16:02:10;;;;;;;8.40;4.90;;;;;;;2.86;nan;97560.44;5071571;28;20039;-54
2021/12/05 16:04:38;;;;;;;8.20;5.03;;;;;;;2.84;nan;97557.94;5069941;28;20141;-59
2021/12/05 16:07:08;;;;;;;4.83;3.50;;;;;;;2.86;nan;97560.44;5058952;28;20075;-56
2021/12/05 16:09:35;;;;;;;8.53;4.63;;;;;;;2.87;nan;97555.38;5070553;28;20041;-55
2021/12/05 16:12:14;;;;;;;7.63;4.60;;;;;;;2.92;nan;97570.56;5067428;28;20033;-54
2021/12/05 16:14:43;;;;;;;6.90;4.50;;;;;;;2.94;nan;97586.56;5065031;28;20390;-56
2021/12/05 16:17:19;;;;;;;8.60;3.90;;;;;;;2.95;nan;97595.84;5067386;28;20723;-54
2021/12/05 16:20:10;;;;;;;6.93;4.17;;;;;;;3.04;nan;97604.22;5072328;28;20478;-55
2021/12/05 16:22:57;;;;;;;6.43;3.10;;;;;;;2.98;nan;97600.88;5071070;28;20522;-56
2021/12/05 16:25:24;;;;;;;5.40;4.07;;;;;;;2.99;nan;97603.41;5065644;28;20052;-56
2021/12/05 16:27:52;;;;;;;5.03;3.63;;;;;;;2.93;nan;97600.91;5067282;28;20028;-54
2021/12/05 16:30:25;;;;;;;5.30;3.37;;;;;;;3.02;nan;97616.03;5068511;28;20092;-58
2021/12/05 16:32:52;;;;;;;3.23;2.70;;;;;;;3.03;nan;97620.25;5060195;28;20175;-56
2021/12/05 16:35:28;;;;;;;4.10;2.53;;;;;;;3.08;nan;97617.69;5067480;28;20051;-56
2021/12/05 16:37:53;;;;;;;3.80;2.53;;;;;;;3.03;nan;97622.78;5067792;28;20094;-60
2021/12/05 16:40:20;;;;;;;3.50;3.03;;;;;;;2.99;nan;97625.34;5072075;28;20044;-55
2021/12/05 16:42:46;;;;;;;2.83;2.53;;;;;;;3.01;nan;97618.59;5067110;28;20048;-52
2021/12/05 16:45:11;;;;;;;2.93;2.70;;;;;;;3.00;nan;97617.75;5056137;28;20390;-53
2021/12/05 16:47:37;;;;;;;5.27;3.30;;;;;;;3.02;nan;97630.38;5061548;28;20128;-56
2021/12/05 16:50:10;;;;;;;3.37;2.83;;;;;;;3.07;nan;97638.81;5069076;28;20485;-55
2021/12/05 16:52:42;;;;;;;5.70;2.87;;;;;;;3.07;nan;97646.41;5066856;28;20048;-58
2021/12/05 16:55:23;;;;;;;2.90;2.70;;;;;;;3.06;nan;97647.25;5064899;28;20044;-59
2021/12/05 16:57:58;;;;;;;3.63;2.97;;;;;;;2.98;nan;97632.09;5078225;28;20052;-57
2021/12/05 17:00:27;;;;;;;5.93;2.75;;;;;;;3.00;nan;97635.47;5076631;28;20035;-57
2021/12/05 17:03:05;;;;;;;4.07;3.23;;;;;;;2.95;nan;97637.19;5066221;28;20044;-57
2021/12/05 17:05:34;;;;;;;10.53;4.17;;;;;;;2.98;nan;97642.22;5060231;28;20037;-57
2021/12/05 17:08:12;;;;;;;3.37;3.03;;;;;;;3.05;nan;97640.53;5069480;28;20093;-59
2021/12/05 17:10:45;;;;;;;6.67;3.53;;;;;;;3.04;nan;97643.88;5070047;28;20067;-57
2021/12/05 17:13:11;;;;;;;3.50;3.03;;;;;;;2.98;nan;97651.50;5064624;28;20040;-59
2021/12/05 17:15:44;;;;;;;4.03;3.13;;;;;;;2.99;nan;97643.06;5068493;28;20540;-59
2021/12/05 17:18:37;;;;;;;3.40;3.03;;;;;;;3.02;nan;97641.34;5068095;28;20037;-57
2021/12/05 17:21:21;;;;;;;5.50;3.17;;;;;;;3.00;nan;97635.47;4968805;28;20066;-57
2021/12/05 17:23:53;;;;;;;5.43;3.17;;;;;;;2.94;nan;97627.91;4964180;28;20066;-57
2021/12/05 17:26:46;;;;;;;4.17;3.47;;;;;;;2.85;nan;97632.16;4966404;28;20501;-57
2021/12/05 17:29:34;;;;;;;3.10;2.80;;;;;;;2.90;nan;97627.91;4959635;28;20580;-57
2021/12/05 17:32:05;;;;;;;3.20;2.73;;;;;;;2.88;nan;97629.63;4965050;28;20043;-57
2021/12/05 17:34:37;;;;;;;5.53;3.03;;;;;;;2.97;nan;97627.88;4967916;28;20505;-58
2021/12/05 17:37:11;;;;;;;2.83;2.40;;;;;;;2.95;nan;97618.63;4972787;28;20405;-55
2021/12/05 17:39:40;;;;;;;3.97;2.93;;;;;;;2.95;nan;97614.41;4964669;28;20710;-58
2021/12/05 17:42:10;;;;;;;6.23;3.00;;;;;;;3.00;nan;97621.97;4962090;28;20058;-59
2021/12/05 17:44:36;;;;;;;3.10;2.83;;;;;;;2.97;nan;97615.22;4965227;28;20561;-62
2021/12/05 17:47:06;;;;;;;4.27;3.67;;;;;;;2.94;nan;97605.13;4966624;28;20077;-61
2021/12/05 17:49:38;;;;;;;5.90;3.40;;;;;;;3.02;nan;97612.66;4963560;28;20073;-60
2021/12/05 17:52:06;;;;;;;3.77;3.23;;;;;;;2.98;nan;97614.38;4944872;28;20051;-61
2021/12/05 17:54:42;;;;;;;5.30;3.10;;;;;;;2.99;nan;97626.19;4966818;28;20053;-61